sensor_id;sensor_type;location;lat;lon;timestamp;P1;durP1;ratioP1;P2;durP2;ratioP2
5823;SDS011;2938;52.254;12.988;2024-01-16T00:01:33;1.77;;;1.52;;
5823;SDS011;2938;52.254;12.988;2024-01-16T00:03:59;2.38;;;1.90;;
5823;SDS011;2938;52.254;12.988;2024-01-16T00:06:24;3.08;;;1.60;;
5823;SDS011;2938;52.254;12.988;2024-01-16T00:08:50;2.05;;;1.70;;
5823;SDS011;2938;52.254;12.988;2024-01-16T00:11:15;4.10;;;2.60;;
5823;SDS011;2938;52.254;12.988;2024-01-16T00:13:40;6.97;;;2.58;;
5823;SDS011;2938;52.254;12.988;2024-01-16T00:16:06;5.07;;;2.33;;
5823;SDS011;2938;52.254;12.988;2024-01-16T00:18:31;4.25;;;2.00;;
5823;SDS011;2938;52.254;12.988;2024-01-16T00:20:57;7.00;;;2.42;;
5823;SDS011;2938;52.254;12.988;2024-01-16T00:23:22;5.28;;;2.33;;
5823;SDS011;2938;52.254;12.988;2024-01-16T00:25:47;4.22;;;1.88;;
5823;SDS011;2938;52.254;12.988;2024-01-16T00:28:13;3.20;;;2.33;;
5823;SDS011;2938;52.254;12.988;2024-01-16T00:30:38;6.68;;;3.05;;
5823;SDS011;2938;52.254;12.988;2024-01-16T00:33:03;8.95;;;3.38;;
5823;SDS011;2938;52.254;12.988;2024-01-16T00:35:29;4.97;;;3.53;;
5823;SDS011;2938;52.254;12.988;2024-01-16T00:37:54;7.88;;;3.33;;
5823;SDS011;2938;52.254;12.988;2024-01-16T00:40:19;11.15;;;3.28;;
5823;SDS011;2938;52.254;12.988;2024-01-16T00:42:45;8.88;;;3.53;;
5823;SDS011;2938;52.254;12.988;2024-01-16T00:45:10;4.57;;;3.60;;
5823;SDS011;2938;52.254;12.988;2024-01-16T00:47:36;7.43;;;4.30;;
5823;SDS011;2938;52.254;12.988;2024-01-16T00:50:09;7.60;;;4.95;;
5823;SDS011;2938;52.254;12.988;2024-01-16T00:52:38;9.50;;;4.97;;
5823;SDS011;2938;52.254;12.988;2024-01-16T00:55:03;9.55;;;4.65;;
5823;SDS011;2938;52.254;12.988;2024-01-16T00:57:29;10.05;;;5.13;;
5823;SDS011;2938;52.254;12.988;2024-01-16T00:59:55;8.63;;;4.68;;
5823;SDS011;2938;52.254;12.988;2024-01-16T01:02:20;13.63;;;6.25;;
5823;SDS011;2938;52.254;12.988;2024-01-16T01:04:45;12.10;;;6.43;;
5823;SDS011;2938;52.254;12.988;2024-01-16T01:07:14;13.35;;;6.63;;
5823;SDS011;2938;52.254;12.988;2024-01-16T01:09:40;7.88;;;5.35;;
5823;SDS011;2938;52.254;12.988;2024-01-16T01:12:05;14.10;;;5.53;;
5823;SDS011;2938;52.254;12.988;2024-01-16T01:14:31;8.50;;;5.85;;
5823;SDS011;2938;52.254;12.988;2024-01-16T01:16:57;13.75;;;5.53;;
5823;SDS011;2938;52.254;12.988;2024-01-16T01:19:27;11.85;;;6.78;;
5823;SDS011;2938;52.254;12.988;2024-01-16T01:21:53;9.98;;;5.97;;
5823;SDS011;2938;52.254;12.988;2024-01-16T01:24:18;15.13;;;6.97;;
5823;SDS011;2938;52.254;12.988;2024-01-16T01:26:46;11.85;;;5.45;;
5823;SDS011;2938;52.254;12.988;2024-01-16T01:29:12;8.98;;;5.75;;
5823;SDS011;2938;52.254;12.988;2024-01-16T01:31:37;10.55;;;5.40;;
5823;SDS011;2938;52.254;12.988;2024-01-16T01:34:15;14.35;;;5.90;;
5823;SDS011;2938;52.254;12.988;2024-01-16T01:36:40;13.52;;;7.97;;
5823;SDS011;2938;52.254;12.988;2024-01-16T01:39:06;17.13;;;6.25;;
5823;SDS011;2938;52.254;12.988;2024-01-16T01:41:36;19.02;;;6.57;;
5823;SDS011;2938;52.254;12.988;2024-01-16T01:46:27;12.27;;;5.70;;
5823;SDS011;2938;52.254;12.988;2024-01-16T01:48:53;9.23;;;5.32;;
5823;SDS011;2938;52.254;12.988;2024-01-16T01:51:19;10.45;;;5.18;;
5823;SDS011;2938;52.254;12.988;2024-01-16T01:53:45;12.68;;;5.57;;
5823;SDS011;2938;52.254;12.988;2024-01-16T01:56:15;5.88;;;4.80;;
5823;SDS011;2938;52.254;12.988;2024-01-16T01:58:46;5.88;;;4.15;;
5823;SDS011;2938;52.254;12.988;2024-01-16T02:01:16;7.28;;;5.57;;
5823;SDS011;2938;52.254;12.988;2024-01-16T02:03:45;9.60;;;3.92;;
5823;SDS011;2938;52.254;12.988;2024-01-16T02:06:12;3.78;;;2.58;;
5823;SDS011;2938;52.254;12.988;2024-01-16T02:08:39;5.32;;;2.15;;
5823;SDS011;2938;52.254;12.988;2024-01-16T02:11:07;3.08;;;2.25;;
5823;SDS011;2938;52.254;12.988;2024-01-16T02:13:33;5.38;;;1.75;;
5823;SDS011;2938;52.254;12.988;2024-01-16T02:15:58;2.47;;;1.25;;
5823;SDS011;2938;52.254;12.988;2024-01-16T02:18:24;4.22;;;1.83;;
5823;SDS011;2938;52.254;12.988;2024-01-16T02:20:49;1.92;;;1.55;;
5823;SDS011;2938;52.254;12.988;2024-01-16T02:23:15;1.08;;;1.00;;
5823;SDS011;2938;52.254;12.988;2024-01-16T02:25:59;1.45;;;1.35;;
5823;SDS011;2938;52.254;12.988;2024-01-16T02:28:25;4.28;;;1.75;;
5823;SDS011;2938;52.254;12.988;2024-01-16T02:30:52;3.30;;;1.60;;
5823;SDS011;2938;52.254;12.988;2024-01-16T02:33:18;1.63;;;1.52;;
5823;SDS011;2938;52.254;12.988;2024-01-16T02:35:46;1.63;;;1.45;;
5823;SDS011;2938;52.254;12.988;2024-01-16T02:38:14;1.77;;;1.30;;
5823;SDS011;2938;52.254;12.988;2024-01-16T02:40:39;1.77;;;1.02;;
5823;SDS011;2938;52.254;12.988;2024-01-16T02:43:05;1.20;;;1.08;;
5823;SDS011;2938;52.254;12.988;2024-01-16T02:45:31;3.30;;;1.00;;
5823;SDS011;2938;52.254;12.988;2024-01-16T02:47:57;2.55;;;1.20;;
5823;SDS011;2938;52.254;12.988;2024-01-16T02:50:23;3.70;;;1.55;;
5823;SDS011;2938;52.254;12.988;2024-01-16T02:52:48;1.40;;;0.98;;
5823;SDS011;2938;52.254;12.988;2024-01-16T02:55:16;1.70;;;1.17;;
5823;SDS011;2938;52.254;12.988;2024-01-16T02:57:42;1.83;;;1.13;;
5823;SDS011;2938;52.254;12.988;2024-01-16T03:00:07;1.98;;;1.33;;
5823;SDS011;2938;52.254;12.988;2024-01-16T03:02:33;1.17;;;0.80;;
5823;SDS011;2938;52.254;12.988;2024-01-16T03:05:02;1.45;;;1.33;;
5823;SDS011;2938;52.254;12.988;2024-01-16T03:10:02;3.60;;;1.60;;
5823;SDS011;2938;52.254;12.988;2024-01-16T03:12:30;2.05;;;1.50;;
5823;SDS011;2938;52.254;12.988;2024-01-16T03:14:58;6.07;;;1.85;;
5823;SDS011;2938;52.254;12.988;2024-01-16T03:17:36;3.10;;;1.25;;
5823;SDS011;2938;52.254;12.988;2024-01-16T03:20:01;1.08;;;0.98;;
5823;SDS011;2938;52.254;12.988;2024-01-16T03:22:28;1.65;;;1.48;;
5823;SDS011;2938;52.254;12.988;2024-01-16T03:24:54;3.83;;;1.30;;
5823;SDS011;2938;52.254;12.988;2024-01-16T03:27:20;3.92;;;1.65;;
5823;SDS011;2938;52.254;12.988;2024-01-16T03:29:45;2.00;;;1.27;;
5823;SDS011;2938;52.254;12.988;2024-01-16T03:32:19;2.13;;;1.30;;
5823;SDS011;2938;52.254;12.988;2024-01-16T03:34:45;2.42;;;1.77;;
5823;SDS011;2938;52.254;12.988;2024-01-16T03:37:10;6.60;;;1.40;;
5823;SDS011;2938;52.254;12.988;2024-01-16T03:39:35;2.92;;;1.27;;
5823;SDS011;2938;52.254;12.988;2024-01-16T03:42:01;4.82;;;1.33;;
5823;SDS011;2938;52.254;12.988;2024-01-16T03:44:26;2.50;;;1.52;;
5823;SDS011;2938;52.254;12.988;2024-01-16T03:46:52;5.05;;;2.30;;
5823;SDS011;2938;52.254;12.988;2024-01-16T03:49:17;3.03;;;1.60;;
5823;SDS011;2938;52.254;12.988;2024-01-16T03:51:42;6.53;;;2.00;;
5823;SDS011;2938;52.254;12.988;2024-01-16T03:54:12;2.47;;;1.50;;
5823;SDS011;2938;52.254;12.988;2024-01-16T03:56:38;2.10;;;1.70;;
5823;SDS011;2938;52.254;12.988;2024-01-16T03:59:04;6.75;;;1.80;;
5823;SDS011;2938;52.254;12.988;2024-01-16T04:01:30;2.65;;;1.38;;
5823;SDS011;2938;52.254;12.988;2024-01-16T04:03:59;1.88;;;1.45;;
5823;SDS011;2938;52.254;12.988;2024-01-16T04:06:24;1.65;;;1.25;;
5823;SDS011;2938;52.254;12.988;2024-01-16T04:08:51;2.85;;;1.55;;
5823;SDS011;2938;52.254;12.988;2024-01-16T04:11:16;3.08;;;1.60;;
5823;SDS011;2938;52.254;12.988;2024-01-16T04:13:45;2.60;;;1.85;;
5823;SDS011;2938;52.254;12.988;2024-01-16T04:16:11;2.80;;;1.85;;
5823;SDS011;2938;52.254;12.988;2024-01-16T04:18:38;1.65;;;1.40;;
5823;SDS011;2938;52.254;12.988;2024-01-16T04:21:05;2.90;;;2.40;;
5823;SDS011;2938;52.254;12.988;2024-01-16T04:23:31;2.83;;;1.92;;
5823;SDS011;2938;52.254;12.988;2024-01-16T04:25:56;3.83;;;2.75;;
5823;SDS011;2938;52.254;12.988;2024-01-16T04:28:22;2.47;;;1.85;;
5823;SDS011;2938;52.254;12.988;2024-01-16T04:30:50;3.95;;;2.80;;
5823;SDS011;2938;52.254;12.988;2024-01-16T04:33:25;9.23;;;1.92;;
5823;SDS011;2938;52.254;12.988;2024-01-16T04:36:05;5.38;;;2.33;;
5823;SDS011;2938;52.254;12.988;2024-01-16T04:38:35;8.32;;;3.50;;
5823;SDS011;2938;52.254;12.988;2024-01-16T04:41:01;8.43;;;3.90;;
5823;SDS011;2938;52.254;12.988;2024-01-16T04:43:29;3.78;;;1.80;;
5823;SDS011;2938;52.254;12.988;2024-01-16T04:45:55;5.07;;;3.22;;
5823;SDS011;2938;52.254;12.988;2024-01-16T04:48:20;7.97;;;3.13;;
5823;SDS011;2938;52.254;12.988;2024-01-16T04:50:46;5.40;;;2.97;;
5823;SDS011;2938;52.254;12.988;2024-01-16T04:53:11;3.15;;;2.22;;
5823;SDS011;2938;52.254;12.988;2024-01-16T04:55:37;4.30;;;2.65;;
5823;SDS011;2938;52.254;12.988;2024-01-16T04:58:05;4.18;;;2.83;;
5823;SDS011;2938;52.254;12.988;2024-01-16T05:00:32;4.55;;;2.05;;
5823;SDS011;2938;52.254;12.988;2024-01-16T05:02:57;3.10;;;2.40;;
5823;SDS011;2938;52.254;12.988;2024-01-16T05:05:26;6.95;;;2.35;;
5823;SDS011;2938;52.254;12.988;2024-01-16T05:07:52;2.90;;;2.22;;
5823;SDS011;2938;52.254;12.988;2024-01-16T05:10:21;3.85;;;2.20;;
5823;SDS011;2938;52.254;12.988;2024-01-16T05:12:47;4.15;;;2.00;;
5823;SDS011;2938;52.254;12.988;2024-01-16T05:15:12;3.83;;;2.20;;
5823;SDS011;2938;52.254;12.988;2024-01-16T05:17:38;12.07;;;2.47;;
5823;SDS011;2938;52.254;12.988;2024-01-16T05:20:03;5.95;;;2.92;;
5823;SDS011;2938;52.254;12.988;2024-01-16T05:22:33;2.17;;;1.92;;
5823;SDS011;2938;52.254;12.988;2024-01-16T05:25:01;3.72;;;2.50;;
5823;SDS011;2938;52.254;12.988;2024-01-16T05:27:33;2.67;;;2.20;;
5823;SDS011;2938;52.254;12.988;2024-01-16T05:30:13;4.32;;;2.55;;
5823;SDS011;2938;52.254;12.988;2024-01-16T05:33:03;7.72;;;3.50;;
5823;SDS011;2938;52.254;12.988;2024-01-16T05:35:37;8.10;;;4.00;;
5823;SDS011;2938;52.254;12.988;2024-01-16T05:38:13;6.28;;;3.60;;
5823;SDS011;2938;52.254;12.988;2024-01-16T05:40:41;3.88;;;2.90;;
5823;SDS011;2938;52.254;12.988;2024-01-16T05:43:12;5.90;;;3.17;;
5823;SDS011;2938;52.254;12.988;2024-01-16T05:45:50;6.75;;;2.67;;
5823;SDS011;2938;52.254;12.988;2024-01-16T05:48:17;7.90;;;2.67;;
5823;SDS011;2938;52.254;12.988;2024-01-16T05:50:56;6.25;;;3.13;;
5823;SDS011;2938;52.254;12.988;2024-01-16T05:53:27;4.03;;;3.05;;
5823;SDS011;2938;52.254;12.988;2024-01-16T05:55:55;6.38;;;3.58;;
5823;SDS011;2938;52.254;12.988;2024-01-16T05:58:29;11.63;;;4.55;;
5823;SDS011;2938;52.254;12.988;2024-01-16T06:00:54;7.35;;;4.35;;
5823;SDS011;2938;52.254;12.988;2024-01-16T06:03:20;6.53;;;3.97;;
5823;SDS011;2938;52.254;12.988;2024-01-16T06:05:46;6.00;;;4.05;;
5823;SDS011;2938;52.254;12.988;2024-01-16T06:08:11;11.88;;;4.38;;
5823;SDS011;2938;52.254;12.988;2024-01-16T06:10:36;7.70;;;3.97;;
5823;SDS011;2938;52.254;12.988;2024-01-16T06:13:27;4.72;;;3.55;;
5823;SDS011;2938;52.254;12.988;2024-01-16T06:18:43;4.18;;;3.00;;
5823;SDS011;2938;52.254;12.988;2024-01-16T06:21:12;12.20;;;4.43;;
5823;SDS011;2938;52.254;12.988;2024-01-16T06:23:37;5.97;;;4.10;;
5823;SDS011;2938;52.254;12.988;2024-01-16T06:26:03;6.95;;;4.95;;
5823;SDS011;2938;52.254;12.988;2024-01-16T06:28:32;6.88;;;5.10;;
5823;SDS011;2938;52.254;12.988;2024-01-16T06:31:00;16.33;;;5.35;;
5823;SDS011;2938;52.254;12.988;2024-01-16T06:33:28;8.77;;;4.97;;
5823;SDS011;2938;52.254;12.988;2024-01-16T06:35:57;7.18;;;6.05;;
5823;SDS011;2938;52.254;12.988;2024-01-16T06:38:25;7.38;;;4.60;;
5823;SDS011;2938;52.254;12.988;2024-01-16T06:40:57;8.73;;;4.88;;
5823;SDS011;2938;52.254;12.988;2024-01-16T06:43:23;7.15;;;3.95;;
5823;SDS011;2938;52.254;12.988;2024-01-16T06:45:57;9.82;;;4.07;;
5823;SDS011;2938;52.254;12.988;2024-01-16T06:48:28;7.80;;;3.83;;
5823;SDS011;2938;52.254;12.988;2024-01-16T06:51:00;6.35;;;4.10;;
5823;SDS011;2938;52.254;12.988;2024-01-16T06:53:26;8.88;;;4.13;;
5823;SDS011;2938;52.254;12.988;2024-01-16T06:55:57;7.65;;;5.15;;
5823;SDS011;2938;52.254;12.988;2024-01-16T06:58:36;6.65;;;4.85;;
5823;SDS011;2938;52.254;12.988;2024-01-16T07:03:54;11.57;;;4.05;;
5823;SDS011;2938;52.254;12.988;2024-01-16T07:06:38;12.93;;;6.35;;
5823;SDS011;2938;52.254;12.988;2024-01-16T07:09:12;6.50;;;4.55;;
5823;SDS011;2938;52.254;12.988;2024-01-16T07:11:38;5.88;;;3.58;;
5823;SDS011;2938;52.254;12.988;2024-01-16T07:17:07;7.13;;;4.32;;
5823;SDS011;2938;52.254;12.988;2024-01-16T07:19:33;4.47;;;3.38;;
5823;SDS011;2938;52.254;12.988;2024-01-16T07:22:11;7.40;;;4.10;;
5823;SDS011;2938;52.254;12.988;2024-01-16T07:24:41;5.25;;;3.75;;
5823;SDS011;2938;52.254;12.988;2024-01-16T07:27:06;5.47;;;3.78;;
5823;SDS011;2938;52.254;12.988;2024-01-16T07:29:32;9.27;;;4.30;;
5823;SDS011;2938;52.254;12.988;2024-01-16T07:32:01;6.05;;;3.92;;
5823;SDS011;2938;52.254;12.988;2024-01-16T07:34:31;8.23;;;5.30;;
5823;SDS011;2938;52.254;12.988;2024-01-16T07:37:04;7.28;;;4.68;;
5823;SDS011;2938;52.254;12.988;2024-01-16T07:39:30;10.23;;;5.45;;
5823;SDS011;2938;52.254;12.988;2024-01-16T07:42:03;8.15;;;5.07;;
5823;SDS011;2938;52.254;12.988;2024-01-16T07:44:32;8.55;;;4.57;;
5823;SDS011;2938;52.254;12.988;2024-01-16T07:46:57;10.18;;;4.32;;
5823;SDS011;2938;52.254;12.988;2024-01-16T07:49:23;4.80;;;3.22;;
5823;SDS011;2938;52.254;12.988;2024-01-16T07:52:07;7.88;;;4.32;;
5823;SDS011;2938;52.254;12.988;2024-01-16T07:54:40;6.38;;;4.88;;
5823;SDS011;2938;52.254;12.988;2024-01-16T07:57:15;6.05;;;3.72;;
5823;SDS011;2938;52.254;12.988;2024-01-16T07:59:52;9.82;;;4.47;;
5823;SDS011;2938;52.254;12.988;2024-01-16T08:02:31;8.43;;;5.35;;
5823;SDS011;2938;52.254;12.988;2024-01-16T08:05:05;4.80;;;3.83;;
5823;SDS011;2938;52.254;12.988;2024-01-16T08:08:35;7.28;;;3.55;;
5823;SDS011;2938;52.254;12.988;2024-01-16T08:14:07;10.63;;;4.38;;
5823;SDS011;2938;52.254;12.988;2024-01-16T08:16:41;6.30;;;4.00;;
5823;SDS011;2938;52.254;12.988;2024-01-16T08:19:16;5.15;;;3.70;;
5823;SDS011;2938;52.254;12.988;2024-01-16T08:22:21;5.57;;;3.35;;
5823;SDS011;2938;52.254;12.988;2024-01-16T08:24:53;9.63;;;4.05;;
5823;SDS011;2938;52.254;12.988;2024-01-16T08:30:54;5.47;;;3.80;;
5823;SDS011;2938;52.254;12.988;2024-01-16T08:33:45;10.85;;;3.22;;
5823;SDS011;2938;52.254;12.988;2024-01-16T08:36:30;10.90;;;3.75;;
5823;SDS011;2938;52.254;12.988;2024-01-16T08:38:59;18.08;;;3.95;;
5823;SDS011;2938;52.254;12.988;2024-01-16T08:42:00;7.60;;;4.03;;
5823;SDS011;2938;52.254;12.988;2024-01-16T08:50:47;8.63;;;4.25;;
5823;SDS011;2938;52.254;12.988;2024-01-16T08:53:16;10.95;;;4.18;;
5823;SDS011;2938;52.254;12.988;2024-01-16T08:56:18;10.80;;;3.67;;
5823;SDS011;2938;52.254;12.988;2024-01-16T09:05:50;7.75;;;4.00;;
5823;SDS011;2938;52.254;12.988;2024-01-16T09:12:29;5.53;;;3.72;;
5823;SDS011;2938;52.254;12.988;2024-01-16T09:16:19;9.25;;;3.90;;
5823;SDS011;2938;52.254;12.988;2024-01-16T09:18:54;10.65;;;3.88;;
5823;SDS011;2938;52.254;12.988;2024-01-16T09:29:58;5.10;;;3.65;;
5823;SDS011;2938;52.254;12.988;2024-01-16T09:57:07;6.60;;;3.47;;
5823;SDS011;2938;52.254;12.988;2024-01-16T09:59:50;9.57;;;3.60;;
5823;SDS011;2938;52.254;12.988;2024-01-16T10:09:19;11.40;;;4.40;;
5823;SDS011;2938;52.254;12.988;2024-01-16T10:12:10;15.05;;;5.60;;
5823;SDS011;2938;52.254;12.988;2024-01-16T10:15:28;7.75;;;3.63;;
5823;SDS011;2938;52.254;12.988;2024-01-16T10:18:06;11.07;;;4.60;;
5823;SDS011;2938;52.254;12.988;2024-01-16T10:24:11;13.35;;;4.85;;
5823;SDS011;2938;52.254;12.988;2024-01-16T10:27:19;21.13;;;5.13;;
5823;SDS011;2938;52.254;12.988;2024-01-16T10:30:04;11.90;;;5.38;;
5823;SDS011;2938;52.254;12.988;2024-01-16T10:36:44;7.13;;;4.00;;
5823;SDS011;2938;52.254;12.988;2024-01-16T10:46:47;12.77;;;4.22;;
5823;SDS011;2938;52.254;12.988;2024-01-16T10:50:04;5.22;;;3.10;;
5823;SDS011;2938;52.254;12.988;2024-01-16T10:56:38;15.68;;;4.28;;
5823;SDS011;2938;52.254;12.988;2024-01-16T11:00:03;9.85;;;3.95;;
5823;SDS011;2938;52.254;12.988;2024-01-16T11:19:32;13.73;;;5.57;;
5823;SDS011;2938;52.254;12.988;2024-01-16T11:39:23;12.70;;;4.45;;
5823;SDS011;2938;52.254;12.988;2024-01-16T11:42:13;8.07;;;4.35;;
5823;SDS011;2938;52.254;12.988;2024-01-16T12:01:22;6.03;;;3.72;;
5823;SDS011;2938;52.254;12.988;2024-01-16T12:04:02;10.18;;;3.70;;
5823;SDS011;2938;52.254;12.988;2024-01-16T12:17:30;12.65;;;4.47;;
5823;SDS011;2938;52.254;12.988;2024-01-16T12:20:17;19.60;;;5.18;;
5823;SDS011;2938;52.254;12.988;2024-01-16T12:23:25;9.35;;;3.08;;
5823;SDS011;2938;52.254;12.988;2024-01-16T12:27:23;19.67;;;5.22;;
5823;SDS011;2938;52.254;12.988;2024-01-16T12:31:05;11.75;;;4.13;;
5823;SDS011;2938;52.254;12.988;2024-01-16T12:37:05;7.72;;;3.30;;
5823;SDS011;2938;52.254;12.988;2024-01-16T12:39:46;8.55;;;4.35;;
5823;SDS011;2938;52.254;12.988;2024-01-16T12:43:00;11.52;;;4.10;;
5823;SDS011;2938;52.254;12.988;2024-01-16T12:45:37;14.32;;;4.55;;
5823;SDS011;2938;52.254;12.988;2024-01-16T12:52:21;9.13;;;2.55;;
5823;SDS011;2938;52.254;12.988;2024-01-16T12:58:58;8.60;;;4.13;;
5823;SDS011;2938;52.254;12.988;2024-01-16T13:04:39;13.05;;;3.80;;
5823;SDS011;2938;52.254;12.988;2024-01-16T13:07:59;8.32;;;3.75;;
5823;SDS011;2938;52.254;12.988;2024-01-16T13:11:13;13.50;;;3.70;;
5823;SDS011;2938;52.254;12.988;2024-01-16T13:26:42;8.05;;;3.20;;
5823;SDS011;2938;52.254;12.988;2024-01-16T13:35:31;14.32;;;3.92;;
5823;SDS011;2938;52.254;12.988;2024-01-16T13:41:22;7.82;;;3.63;;
5823;SDS011;2938;52.254;12.988;2024-01-16T13:44:00;11.40;;;3.40;;
5823;SDS011;2938;52.254;12.988;2024-01-16T13:46:47;11.18;;;3.30;;
5823;SDS011;2938;52.254;12.988;2024-01-16T13:57:13;10.27;;;3.80;;
5823;SDS011;2938;52.254;12.988;2024-01-16T14:01:34;14.60;;;3.53;;
5823;SDS011;2938;52.254;12.988;2024-01-16T14:03:16;14.30;;;4.30;;
5823;SDS011;2938;52.254;12.988;2024-01-16T14:13:24;7.40;;;3.70;;
5823;SDS011;2938;52.254;12.988;2024-01-16T14:19:26;4.97;;;2.63;;
5823;SDS011;2938;52.254;12.988;2024-01-16T14:31:32;7.57;;;3.85;;
5823;SDS011;2938;52.254;12.988;2024-01-16T14:34:50;7.93;;;3.45;;
5823;SDS011;2938;52.254;12.988;2024-01-16T14:41:18;7.22;;;3.58;;
5823;SDS011;2938;52.254;12.988;2024-01-16T15:29:53;11.57;;;5.45;;
5823;SDS011;2938;52.254;12.988;2024-01-16T15:39:18;14.07;;;7.20;;
5823;SDS011;2938;52.254;12.988;2024-01-16T15:41:50;21.40;;;6.88;;
5823;SDS011;2938;52.254;12.988;2024-01-16T15:51:11;11.13;;;5.43;;
5823;SDS011;2938;52.254;12.988;2024-01-16T15:53:48;19.42;;;7.13;;
5823;SDS011;2938;52.254;12.988;2024-01-16T15:56:27;14.07;;;6.35;;
5823;SDS011;2938;52.254;12.988;2024-01-16T16:01:29;9.10;;;5.72;;
5823;SDS011;2938;52.254;12.988;2024-01-16T16:03:56;17.95;;;7.35;;
5823;SDS011;2938;52.254;12.988;2024-01-16T16:06:39;14.15;;;5.32;;
5823;SDS011;2938;52.254;12.988;2024-01-16T16:13:43;10.75;;;5.60;;
5823;SDS011;2938;52.254;12.988;2024-01-16T16:16:54;14.77;;;6.57;;
5823;SDS011;2938;52.254;12.988;2024-01-16T16:19:29;9.68;;;6.60;;
5823;SDS011;2938;52.254;12.988;2024-01-16T16:21:58;17.98;;;7.60;;
5823;SDS011;2938;52.254;12.988;2024-01-16T16:24:32;14.82;;;7.03;;
5823;SDS011;2938;52.254;12.988;2024-01-16T16:28:32;15.10;;;7.53;;
5823;SDS011;2938;52.254;12.988;2024-01-16T16:30:26;15.43;;;7.70;;
5823;SDS011;2938;52.254;12.988;2024-01-16T16:33:21;14.75;;;7.05;;
5823;SDS011;2938;52.254;12.988;2024-01-16T16:35:53;15.90;;;7.55;;
5823;SDS011;2938;52.254;12.988;2024-01-16T16:38:22;23.08;;;7.68;;
5823;SDS011;2938;52.254;12.988;2024-01-16T16:41:03;12.95;;;6.35;;
5823;SDS011;2938;52.254;12.988;2024-01-16T16:50:03;14.93;;;7.05;;
5823;SDS011;2938;52.254;12.988;2024-01-16T16:52:39;8.15;;;5.97;;
5823;SDS011;2938;52.254;12.988;2024-01-16T16:55:27;13.25;;;5.65;;
5823;SDS011;2938;52.254;12.988;2024-01-16T16:58:16;15.77;;;6.03;;
5823;SDS011;2938;52.254;12.988;2024-01-16T17:01:13;10.50;;;5.97;;
5823;SDS011;2938;52.254;12.988;2024-01-16T17:03:51;15.60;;;8.07;;
5823;SDS011;2938;52.254;12.988;2024-01-16T17:06:43;9.55;;;5.63;;
5823;SDS011;2938;52.254;12.988;2024-01-16T17:09:24;10.98;;;5.03;;
5823;SDS011;2938;52.254;12.988;2024-01-16T17:21:29;20.95;;;7.78;;
5823;SDS011;2938;52.254;12.988;2024-01-16T17:27:51;27.50;;;9.98;;
5823;SDS011;2938;52.254;12.988;2024-01-16T17:31:34;25.05;;;8.75;;
5823;SDS011;2938;52.254;12.988;2024-01-16T17:36:55;29.40;;;10.35;;
5823;SDS011;2938;52.254;12.988;2024-01-16T17:42:03;21.95;;;8.60;;
5823;SDS011;2938;52.254;12.988;2024-01-16T17:44:28;22.42;;;11.05;;
5823;SDS011;2938;52.254;12.988;2024-01-16T17:46:55;20.88;;;9.88;;
5823;SDS011;2938;52.254;12.988;2024-01-16T17:49:56;17.00;;;10.05;;
5823;SDS011;2938;52.254;12.988;2024-01-16T17:52:28;16.67;;;8.02;;
5823;SDS011;2938;52.254;12.988;2024-01-16T17:55:04;15.95;;;8.75;;
5823;SDS011;2938;52.254;12.988;2024-01-16T17:57:47;15.65;;;7.78;;
5823;SDS011;2938;52.254;12.988;2024-01-16T18:00:22;14.65;;;7.97;;
5823;SDS011;2938;52.254;12.988;2024-01-16T18:02:51;17.15;;;8.93;;
5823;SDS011;2938;52.254;12.988;2024-01-16T18:05:43;13.23;;;6.97;;
5823;SDS011;2938;52.254;12.988;2024-01-16T18:08:19;20.20;;;8.45;;
5823;SDS011;2938;52.254;12.988;2024-01-16T18:19:14;18.77;;;9.07;;
5823;SDS011;2938;52.254;12.988;2024-01-16T18:21:49;21.50;;;8.77;;
5823;SDS011;2938;52.254;12.988;2024-01-16T18:24:34;16.30;;;9.15;;
5823;SDS011;2938;52.254;12.988;2024-01-16T18:27:27;18.83;;;7.88;;
5823;SDS011;2938;52.254;12.988;2024-01-16T18:32:49;25.95;;;10.93;;
5823;SDS011;2938;52.254;12.988;2024-01-16T18:33:49;38.45;;;16.83;;
5823;SDS011;2938;52.254;12.988;2024-01-16T18:36:47;47.20;;;23.33;;
5823;SDS011;2938;52.254;12.988;2024-01-16T18:39:16;57.40;;;27.92;;
5823;SDS011;2938;52.254;12.988;2024-01-16T18:41:44;71.93;;;31.70;;
5823;SDS011;2938;52.254;12.988;2024-01-16T18:44:14;79.82;;;34.33;;
5823;SDS011;2938;52.254;12.988;2024-01-16T18:46:40;82.68;;;33.05;;
5823;SDS011;2938;52.254;12.988;2024-01-16T18:49:24;69.40;;;34.55;;
5823;SDS011;2938;52.254;12.988;2024-01-16T18:51:55;71.03;;;31.83;;
5823;SDS011;2938;52.254;12.988;2024-01-16T18:54:48;44.38;;;20.75;;
5823;SDS011;2938;52.254;12.988;2024-01-16T18:57:14;35.15;;;18.95;;
5823;SDS011;2938;52.254;12.988;2024-01-16T18:59:39;49.58;;;22.25;;
5823;SDS011;2938;52.254;12.988;2024-01-16T19:02:07;43.38;;;22.20;;
5823;SDS011;2938;52.254;12.988;2024-01-16T19:09:37;43.75;;;21.80;;
5823;SDS011;2938;52.254;12.988;2024-01-16T19:17:26;43.28;;;19.83;;
5823;SDS011;2938;52.254;12.988;2024-01-16T19:19:51;40.00;;;18.92;;
5823;SDS011;2938;52.254;12.988;2024-01-16T19:22:17;39.60;;;19.55;;
5823;SDS011;2938;52.254;12.988;2024-01-16T19:24:45;39.10;;;18.55;;
5823;SDS011;2938;52.254;12.988;2024-01-16T19:27:11;26.42;;;16.23;;
5823;SDS011;2938;52.254;12.988;2024-01-16T19:29:36;35.92;;;17.75;;
5823;SDS011;2938;52.254;12.988;2024-01-16T19:32:01;24.15;;;13.43;;
5823;SDS011;2938;52.254;12.988;2024-01-16T19:34:27;36.00;;;13.73;;
5823;SDS011;2938;52.254;12.988;2024-01-16T19:36:52;27.48;;;14.52;;
5823;SDS011;2938;52.254;12.988;2024-01-16T19:39:18;30.92;;;15.13;;
5823;SDS011;2938;52.254;12.988;2024-01-16T19:41:46;32.22;;;13.05;;
5823;SDS011;2938;52.254;12.988;2024-01-16T19:44:11;32.83;;;15.18;;
5823;SDS011;2938;52.254;12.988;2024-01-16T19:46:41;29.42;;;14.63;;
5823;SDS011;2938;52.254;12.988;2024-01-16T19:49:07;31.23;;;11.75;;
5823;SDS011;2938;52.254;12.988;2024-01-16T19:51:33;22.17;;;11.93;;
5823;SDS011;2938;52.254;12.988;2024-01-16T19:54:00;28.20;;;12.75;;
5823;SDS011;2938;52.254;12.988;2024-01-16T19:56:26;22.13;;;11.98;;
5823;SDS011;2938;52.254;12.988;2024-01-16T19:58:51;20.02;;;10.45;;
5823;SDS011;2938;52.254;12.988;2024-01-16T20:01:19;24.65;;;9.95;;
5823;SDS011;2938;52.254;12.988;2024-01-16T20:04:14;13.75;;;8.40;;
5823;SDS011;2938;52.254;12.988;2024-01-16T20:06:39;20.77;;;9.82;;
5823;SDS011;2938;52.254;12.988;2024-01-16T20:09:07;15.57;;;8.77;;
5823;SDS011;2938;52.254;12.988;2024-01-16T20:11:35;16.95;;;8.55;;
5823;SDS011;2938;52.254;12.988;2024-01-16T20:14:00;20.75;;;10.93;;
5823;SDS011;2938;52.254;12.988;2024-01-16T20:16:27;12.07;;;8.15;;
5823;SDS011;2938;52.254;12.988;2024-01-16T20:18:53;14.85;;;9.63;;
5823;SDS011;2938;52.254;12.988;2024-01-16T20:21:21;16.60;;;8.95;;
5823;SDS011;2938;52.254;12.988;2024-01-16T20:23:47;15.10;;;9.73;;
5823;SDS011;2938;52.254;12.988;2024-01-16T20:26:14;19.38;;;10.05;;
5823;SDS011;2938;52.254;12.988;2024-01-16T20:28:41;15.13;;;8.90;;
5823;SDS011;2938;52.254;12.988;2024-01-16T20:31:06;18.70;;;8.05;;
5823;SDS011;2938;52.254;12.988;2024-01-16T20:33:32;18.05;;;8.63;;
5823;SDS011;2938;52.254;12.988;2024-01-16T20:36:00;12.05;;;7.93;;
5823;SDS011;2938;52.254;12.988;2024-01-16T20:38:30;16.40;;;8.77;;
5823;SDS011;2938;52.254;12.988;2024-01-16T20:40:55;20.25;;;8.43;;
5823;SDS011;2938;52.254;12.988;2024-01-16T20:43:24;10.93;;;6.35;;
5823;SDS011;2938;52.254;12.988;2024-01-16T20:45:49;13.75;;;8.00;;
5823;SDS011;2938;52.254;12.988;2024-01-16T20:48:15;22.98;;;8.48;;
5823;SDS011;2938;52.254;12.988;2024-01-16T20:50:40;20.42;;;9.32;;
5823;SDS011;2938;52.254;12.988;2024-01-16T20:53:06;15.55;;;8.57;;
5823;SDS011;2938;52.254;12.988;2024-01-16T20:55:32;20.85;;;9.30;;
5823;SDS011;2938;52.254;12.988;2024-01-16T20:58:09;17.42;;;10.15;;
5823;SDS011;2938;52.254;12.988;2024-01-16T21:00:38;16.77;;;10.07;;
5823;SDS011;2938;52.254;12.988;2024-01-16T21:03:08;26.55;;;10.73;;
5823;SDS011;2938;52.254;12.988;2024-01-16T21:05:35;14.68;;;9.15;;
5823;SDS011;2938;52.254;12.988;2024-01-16T21:08:01;17.17;;;10.60;;
5823;SDS011;2938;52.254;12.988;2024-01-16T21:10:28;16.02;;;8.48;;